Stephenville, Canada
Current Conditions -  °F | °C
As of 12:00 AM on Tuesday 21 Oct 2014 (Local Time) from CYJT Reporting Station
Light Rain Light Rain  
Wind Chill: 34°   Ceiling: 2300
Heat Index: 45°   Visibility: 10mi
Dew Point: 37°   Wind: 33mph
Humidity: 76%   Direction: 260°W
Pressure: 29.64"   Gusts: 44mph
Location:  48.55°N, 58.58°W
Report Text: CYJT 210200Z 26029G38KT 10SM -RA SCT016 OVC023 07/03 A2964 RMK SF3SC5 SLP038
Loading
Personal Weather Stations






























Interactive Weather Map
Tropical Storm Tracking
New forecast layout! Learn more

10-Day Weather Forecast

Advertisements
Track Severe Weather on mobile